createdAt,value
2019-04-13T00:00:16.378Z,81.94
2019-04-13T00:02:45.722Z,82.41
2019-04-13T00:05:15.960Z,82.91
2019-04-13T00:07:46.260Z,83.08
2019-04-13T00:10:16.361Z,83.23
2019-04-13T00:12:44.832Z,83.12
2019-04-13T00:15:14.942Z,83.00
2019-04-13T00:17:43.411Z,83.06
2019-04-13T00:20:11.875Z,82.86
2019-04-13T00:22:40.300Z,83.00
2019-04-13T00:25:08.850Z,82.89
2019-04-13T00:27:37.354Z,83.11
2019-04-13T00:30:07.161Z,83.26
2019-04-13T00:32:35.638Z,82.91
2019-04-13T00:35:05.125Z,83.63
2019-04-13T00:37:33.632Z,83.95
2019-04-13T00:40:02.105Z,84.10
2019-04-13T00:42:30.577Z,83.88
2019-04-13T00:44:59.218Z,84.00
2019-04-13T00:47:27.694Z,84.60
2019-04-13T00:49:56.172Z,84.34
2019-04-13T00:52:24.637Z,84.89
2019-04-13T00:54:53.116Z,84.90
2019-04-13T00:57:21.613Z,84.82
2019-04-13T00:59:50.092Z,84.34
2019-04-13T01:02:18.562Z,84.35
2019-04-13T01:04:53.389Z,84.60
2019-04-13T01:07:17.260Z,84.11
2019-04-13T01:09:45.765Z,83.76
2019-04-13T01:12:14.243Z,84.38
2019-04-13T01:14:42.709Z,84.41
2019-04-13T01:17:11.177Z,83.88
2019-04-13T01:19:39.636Z,83.70
2019-04-13T01:22:08.104Z,83.28
2019-04-13T01:24:36.581Z,83.37
2019-04-13T01:27:05.065Z,83.43
2019-04-13T01:29:33.571Z,83.50
2019-04-13T01:32:02.022Z,84.15
2019-04-13T01:34:30.519Z,83.84
2019-04-13T01:36:58.980Z,84.11
2019-04-13T01:39:27.469Z,83.77
2019-04-13T01:41:55.930Z,83.58
2019-04-13T01:44:24.421Z,83.76
2019-04-13T01:46:52.886Z,83.30
2019-04-13T01:49:21.384Z,83.71
2019-04-13T01:51:49.903Z,83.48
2019-04-13T01:54:18.400Z,83.68
2019-04-13T01:56:46.894Z,83.79
2019-04-13T01:59:15.380Z,83.86
2019-04-13T02:01:48.492Z,84.22
2019-04-13T02:04:36.674Z,83.92
2019-04-13T02:07:06.765Z,83.60
2019-04-13T02:09:36.904Z,83.54
2019-04-13T02:12:05.377Z,83.85
2019-04-13T02:14:33.868Z,84.02
2019-04-13T02:17:02.351Z,83.29
2019-04-13T02:19:30.816Z,82.97
2019-04-13T02:21:59.290Z,83.01
2019-04-13T02:24:27.757Z,83.23
2019-04-13T02:26:56.213Z,83.25
2019-04-13T02:29:24.693Z,82.70
2019-04-13T02:31:53.143Z,82.07
2019-04-13T02:34:21.634Z,82.08
2019-04-13T02:36:50.095Z,82.44
2019-04-13T02:39:18.563Z,82.27
2019-04-13T02:41:47.022Z,82.23
2019-04-13T02:44:15.584Z,82.63
2019-04-13T02:46:44.081Z,82.42
2019-04-13T02:49:12.575Z,82.75
2019-04-13T02:51:41.022Z,82.80
2019-04-13T02:54:09.493Z,82.30
2019-04-13T02:56:37.955Z,82.48
2019-04-13T02:59:06.532Z,83.29
2019-04-13T03:01:35.321Z,83.92
2019-04-13T03:04:04.029Z,83.79
2019-04-13T03:06:32.568Z,84.37
2019-04-13T03:09:01.055Z,84.54
2019-04-13T03:11:29.582Z,84.58
2019-04-13T03:13:58.069Z,84.67
2019-04-13T03:16:28.157Z,84.63
2019-04-13T03:19:04.308Z,84.83
2019-04-13T03:21:32.781Z,85.31
2019-04-13T03:24:01.239Z,85.50
2019-04-13T03:26:29.701Z,85.67
2019-04-13T03:28:58.175Z,85.00
2019-04-13T03:31:26.629Z,84.75
2019-04-13T03:33:55.078Z,84.61
2019-04-13T03:36:23.545Z,85.07
2019-04-13T03:38:51.976Z,85.29
2019-04-13T03:41:20.470Z,85.30
2019-04-13T03:43:48.912Z,85.93
2019-04-13T03:46:17.393Z,85.93
2019-04-13T03:48:45.864Z,85.68
2019-04-13T03:51:14.372Z,85.01
2019-04-13T03:53:42.842Z,85.37
2019-04-13T03:56:11.314Z,85.47
2019-04-13T03:58:39.781Z,85.66
2019-04-13T04:01:08.245Z,85.44
2019-04-13T04:03:36.711Z,85.44
2019-04-13T04:06:11.630Z,85.47
2019-04-13T04:08:35.362Z,85.55
2019-04-13T04:11:03.827Z,85.66
2019-04-13T04:13:32.305Z,85.38
2019-04-13T04:16:00.789Z,85.13
2019-04-13T04:18:29.416Z,84.94
2019-04-13T04:20:57.890Z,84.79
2019-04-13T04:23:26.354Z,84.94
2019-04-13T04:25:54.829Z,85.06
2019-04-13T04:28:23.285Z,85.10
2019-04-13T04:30:51.796Z,84.85
2019-04-13T04:33:20.271Z,84.86
2019-04-13T04:35:48.768Z,85.42
2019-04-13T04:38:17.266Z,85.92
2019-04-13T04:40:45.758Z,86.60
2019-04-13T04:43:14.341Z,86.50
2019-04-13T04:45:42.859Z,87.08
2019-04-13T04:48:11.342Z,87.66
2019-04-13T04:50:39.799Z,88.22
2019-04-13T04:53:08.277Z,88.65
2019-04-13T04:55:36.783Z,89.01
2019-04-13T04:58:05.274Z,89.08
2019-04-13T05:00:33.997Z,89.08
2019-04-13T05:03:02.492Z,89.35
2019-04-13T05:05:30.991Z,89.14
2019-04-13T05:08:10.603Z,89.95
2019-04-13T05:10:29.581Z,90.14
2019-04-13T05:12:58.075Z,90.05
2019-04-13T05:15:26.547Z,89.81
2019-04-13T05:17:55.045Z,89.29
2019-04-13T05:20:23.535Z,89.28
2019-04-13T05:22:52.010Z,89.35
2019-04-13T05:25:20.503Z,89.50
2019-04-13T05:27:49.017Z,89.54
2019-04-13T05:30:17.491Z,89.44
2019-04-13T05:32:45.938Z,89.15
2019-04-13T05:35:14.445Z,88.66
2019-04-13T05:37:42.946Z,87.91
2019-04-13T05:40:11.549Z,87.17
2019-04-13T05:42:40.036Z,87.27
2019-04-13T05:45:08.957Z,87.75
2019-04-13T05:47:37.423Z,87.21
2019-04-13T05:50:08.243Z,87.22
2019-04-13T05:52:36.722Z,87.04
2019-04-13T05:55:07.007Z,87.17
2019-04-13T05:57:35.489Z,87.10
2019-04-13T06:00:06.227Z,87.72
2019-04-13T06:02:36.261Z,87.92
2019-04-13T06:05:07.678Z,88.23
2019-04-13T06:07:36.447Z,88.15
2019-04-13T06:10:07.412Z,87.50
2019-04-13T06:12:35.801Z,87.26
2019-04-13T06:15:07.262Z,86.68
2019-04-13T06:17:37.388Z,86.51
2019-04-13T06:20:07.890Z,85.58
2019-04-13T06:22:36.404Z,83.56
2019-04-13T06:25:09.659Z,81.56
2019-04-13T06:27:36.735Z,79.54
2019-04-13T06:30:27.234Z,79.62
2019-04-13T06:32:57.454Z,79.51
2019-04-13T06:35:27.567Z,80.97
2019-04-13T06:37:56.065Z,80.97
2019-04-13T06:40:24.536Z,82.01
2019-04-13T06:42:54.749Z,81.86
2019-04-13T06:45:23.254Z,82.71
2019-04-13T06:47:51.730Z,82.91
2019-04-13T06:50:20.204Z,82.59
2019-04-13T06:52:48.673Z,82.75
2019-04-13T06:55:17.165Z,82.41
2019-04-13T06:57:45.697Z,83.06
2019-04-13T07:00:15.681Z,83.07
2019-04-13T07:02:44.442Z,83.32
2019-04-13T07:05:12.977Z,83.26
2019-04-13T07:07:48.859Z,82.94
2019-04-13T07:10:30.102Z,83.35
2019-04-13T07:12:52.698Z,83.17
2019-04-13T07:15:21.384Z,82.98
2019-04-13T07:17:49.876Z,82.18
2019-04-13T07:20:18.326Z,82.08
2019-04-13T07:22:46.837Z,81.21
2019-04-13T07:25:15.283Z,81.24
2019-04-13T07:27:43.806Z,81.58
2019-04-13T07:30:14.246Z,81.18
2019-04-13T07:32:42.713Z,78.98
2019-04-13T07:35:11.259Z,78.09
2019-04-13T07:37:39.783Z,78.06
2019-04-13T07:40:08.335Z,77.57
2019-04-13T07:42:39.417Z,76.94
2019-04-13T07:45:09.588Z,76.71
2019-04-13T07:47:48.622Z,77.55
2019-04-13T07:50:36.716Z,77.59
2019-04-13T07:53:06.526Z,77.03
2019-04-13T07:55:36.429Z,76.19
2019-04-13T07:58:05.068Z,76.41
2019-04-13T08:00:34.160Z,76.50
2019-04-13T08:03:02.679Z,76.81
2019-04-13T08:05:31.164Z,76.60
2019-04-13T08:07:59.644Z,76.73
2019-04-13T08:10:28.176Z,75.94
2019-04-13T08:12:56.692Z,75.41
2019-04-13T08:15:25.632Z,75.37
2019-04-13T08:17:54.137Z,74.50
2019-04-13T08:20:34.282Z,74.70
2019-04-13T08:23:03.264Z,74.91
2019-04-13T08:25:36.807Z,74.22
2019-04-13T08:28:03.647Z,72.98
2019-04-13T08:30:35.800Z,72.98
2019-04-13T08:33:03.687Z,67.48
2019-04-13T08:35:33.430Z,61.42
2019-04-13T08:38:12.509Z,60.22
2019-04-13T08:40:32.014Z,59.63
2019-04-13T08:43:01.419Z,63.10
2019-04-13T08:45:29.873Z,65.07
2019-04-13T08:47:58.381Z,66.63
2019-04-13T08:50:26.818Z,68.83
2019-04-13T08:52:55.787Z,70.35
2019-04-13T08:55:24.261Z,69.91
2019-04-13T08:57:56.120Z,70.26
2019-04-13T09:00:25.110Z,69.83
2019-04-13T09:02:53.590Z,69.17
2019-04-13T09:05:22.051Z,70.23
2019-04-13T09:07:50.545Z,70.06
2019-04-13T09:10:24.023Z,69.42
2019-04-13T09:12:52.951Z,68.37
2019-04-13T09:15:19.438Z,65.28
2019-04-13T09:17:52.704Z,65.29
2019-04-13T09:20:24.429Z,66.32
2019-04-13T09:23:04.594Z,68.32
2019-04-13T09:25:33.165Z,69.10
2019-04-13T09:28:02.496Z,69.12
2019-04-13T09:30:32.719Z,68.19
2019-04-13T09:33:04.045Z,67.25
2019-04-13T09:35:31.437Z,65.93
2019-04-13T09:37:59.871Z,64.41
2019-04-13T09:40:30.649Z,64.24
2019-04-13T09:42:59.606Z,61.59
2019-04-13T09:45:28.327Z,61.84
2019-04-13T09:47:56.797Z,61.64
2019-04-13T09:50:25.292Z,63.91
2019-04-13T09:52:53.800Z,65.18
2019-04-13T09:55:22.316Z,68.47
2019-04-13T09:57:50.820Z,69.88
2019-04-13T10:01:56.447Z,71.64
2019-04-13T10:02:51.332Z,72.86
2019-04-13T10:05:19.859Z,75.79
2019-04-13T10:07:48.284Z,76.52
2019-04-13T10:10:16.747Z,77.67
2019-04-13T10:12:47.617Z,78.99
2019-04-13T10:15:26.791Z,78.50
2019-04-13T10:17:56.966Z,78.51
2019-04-13T10:20:25.552Z,77.93
2019-04-13T10:22:55.861Z,76.33
2019-04-13T10:25:24.229Z,76.51
2019-04-13T10:27:52.830Z,74.34
2019-04-13T10:30:21.294Z,72.92
2019-04-13T10:32:49.781Z,69.54
2019-04-13T10:35:18.268Z,67.92
2019-04-13T10:37:46.828Z,69.00
2019-04-13T10:40:16.174Z,67.78
2019-04-13T10:42:44.674Z,67.12
2019-04-13T10:45:20.500Z,67.38
2019-04-13T10:48:02.685Z,67.21
2019-04-13T10:50:34.227Z,67.32
2019-04-13T10:53:02.757Z,63.46
2019-04-13T10:55:31.206Z,63.42
2019-04-13T10:57:59.707Z,64.07
2019-04-13T11:00:28.227Z,64.53
2019-04-13T11:02:56.708Z,60.28
2019-04-13T11:05:25.162Z,58.61
2019-04-13T11:07:53.647Z,61.00
2019-04-13T11:10:22.105Z,61.32
2019-04-13T11:12:50.589Z,60.78
2019-04-13T11:15:20.102Z,59.84
2019-04-13T11:17:48.598Z,59.36
2019-04-13T11:20:19.374Z,56.91
2019-04-13T11:22:48.701Z,58.70
2019-04-13T11:25:21.581Z,57.05
2019-04-13T11:27:47.530Z,54.83
2019-04-13T11:30:16.607Z,55.33
2019-04-13T11:32:45.227Z,56.01
2019-04-13T11:35:13.805Z,56.28
2019-04-13T11:37:48.058Z,53.69
2019-04-13T11:40:20.007Z,52.16
2019-04-13T11:42:52.083Z,56.05
2019-04-13T11:45:26.638Z,52.34
2019-04-13T11:48:10.145Z,52.64
2019-04-13T11:50:40.794Z,51.08
2019-04-13T11:53:20.319Z,52.19
2019-04-13T11:55:47.901Z,49.57
2019-04-13T11:58:16.476Z,47.11
2019-04-13T12:00:58.429Z,47.37
2019-04-13T12:03:33.025Z,50.19
2019-04-13T12:06:06.474Z,50.74
2019-04-13T12:08:59.218Z,47.29
2019-04-13T12:11:46.572Z,44.80
2019-04-13T12:14:22.728Z,46.32
2019-04-13T12:17:10.155Z,47.91
2019-04-13T12:19:46.085Z,50.11
2019-04-13T12:22:16.365Z,50.52
2019-04-13T12:24:44.899Z,50.87
2019-04-13T12:27:13.562Z,52.26
2019-04-13T12:29:44.923Z,51.75
2019-04-13T12:32:17.627Z,53.86
2019-04-13T12:34:46.124Z,52.31
2019-04-13T12:37:18.939Z,53.07
2019-04-13T12:40:02.329Z,56.12
2019-04-13T12:42:24.157Z,60.64
2019-04-13T12:44:52.754Z,63.87
2019-04-13T12:47:22.618Z,64.84
2019-04-13T12:49:51.167Z,64.78
2019-04-13T12:52:19.743Z,65.29
2019-04-13T12:54:48.204Z,65.39
2019-04-13T12:57:16.756Z,65.93
2019-04-13T12:59:45.440Z,66.48
2019-04-13T13:02:15.546Z,65.08
2019-04-13T13:05:00.967Z,66.27
2019-04-13T13:07:29.409Z,63.36
2019-04-13T13:09:57.941Z,62.64
2019-04-13T13:12:26.661Z,60.59
2019-04-13T13:14:58.376Z,60.86
2019-04-13T13:17:26.992Z,60.62
2019-04-13T13:19:55.546Z,60.46
2019-04-13T13:22:24.090Z,56.66
2019-04-13T13:24:52.623Z,54.97
2019-04-13T13:27:22.837Z,56.71
2019-04-13T13:29:51.456Z,53.29
2019-04-13T13:32:20.897Z,55.92
2019-04-13T13:34:49.385Z,55.14
2019-04-13T13:37:17.876Z,56.90
2019-04-13T13:39:46.321Z,58.17
2019-04-13T13:42:14.836Z,57.04
2019-04-13T13:44:43.301Z,58.49
2019-04-13T13:47:13.703Z,59.65
2019-04-13T13:49:42.187Z,59.74
2019-04-13T13:52:10.778Z,57.74
2019-04-13T13:54:40.168Z,55.62
2019-04-13T13:57:08.641Z,55.59
2019-04-13T13:59:37.996Z,55.24
2019-04-13T14:02:08.386Z,55.26
2019-04-13T14:04:36.982Z,54.97
2019-04-13T14:07:05.523Z,54.46
2019-04-13T14:09:34.033Z,54.17
2019-04-13T14:12:02.519Z,53.95
2019-04-13T14:14:31.005Z,54.27
2019-04-13T14:16:59.502Z,52.58
2019-04-13T14:19:30.246Z,53.55
2019-04-13T14:21:58.235Z,52.84
2019-04-13T14:24:29.590Z,53.11
2019-04-13T14:26:58.111Z,54.19
2019-04-13T14:29:26.608Z,55.40
2019-04-13T14:31:55.993Z,54.16
2019-04-13T14:34:24.465Z,50.71
2019-04-13T14:36:52.991Z,51.91
2019-04-13T14:39:21.531Z,52.69
2019-04-13T14:41:51.820Z,52.41
2019-04-13T14:44:20.528Z,53.13
2019-04-13T14:46:49.039Z,52.04
2019-04-13T14:49:18.565Z,51.07
2019-04-13T14:51:47.302Z,52.31
2019-04-13T14:54:19.623Z,54.40
2019-04-13T14:56:46.290Z,56.98
2019-04-13T14:59:16.723Z,57.83
2019-04-13T15:01:45.058Z,60.23
2019-04-13T15:04:13.631Z,60.77
2019-04-13T15:06:42.152Z,60.72
2019-04-13T15:09:12.232Z,60.57
2019-04-13T15:11:40.763Z,60.37
2019-04-13T15:14:13.241Z,60.74
2019-04-13T15:16:42.159Z,59.10
2019-04-13T15:19:29.323Z,58.45
2019-04-13T15:21:50.789Z,58.60
2019-04-13T15:24:20.208Z,54.32
2019-04-13T15:26:52.118Z,53.41
2019-04-13T15:29:22.395Z,53.92
2019-04-13T15:31:51.008Z,54.71
2019-04-13T15:34:20.478Z,53.87
2019-04-13T15:36:48.976Z,53.48
2019-04-13T15:39:18.849Z,52.82
2019-04-13T15:42:00.150Z,50.49
2019-04-13T15:44:17.943Z,49.09
2019-04-13T15:46:46.448Z,48.51
2019-04-13T15:49:15.354Z,48.90
2019-04-13T15:51:45.864Z,48.12
2019-04-13T15:54:14.476Z,47.83
2019-04-13T15:56:44.417Z,48.52
2019-04-13T15:59:16.528Z,48.38
2019-04-13T16:01:43.543Z,47.28
2019-04-13T16:04:12.027Z,47.05
2019-04-13T16:06:40.519Z,48.06
2019-04-13T16:09:14.240Z,48.36
2019-04-13T16:11:57.063Z,48.36
2019-04-13T16:14:20.843Z,47.73
2019-04-13T16:16:49.990Z,48.63
2019-04-13T16:19:18.490Z,49.63
2019-04-13T16:21:47.541Z,48.36
2019-04-13T16:24:18.062Z,49.73
2019-04-13T16:26:46.536Z,48.68
2019-04-13T16:29:31.512Z,48.73
2019-04-13T16:32:23.146Z,48.24
2019-04-13T16:34:57.751Z,49.00
2019-04-13T16:37:27.988Z,48.81
2019-04-13T16:39:57.863Z,47.88
2019-04-13T16:42:30.758Z,48.27
2019-04-13T16:45:09.645Z,48.27
2019-04-13T16:47:39.754Z,48.43
2019-04-13T16:50:16.259Z,47.11
2019-04-13T16:53:04.582Z,47.14
2019-04-13T16:55:37.528Z,48.03
2019-04-13T16:58:13.630Z,47.45
2019-04-13T17:00:52.476Z,48.66
2019-04-13T17:03:38.332Z,48.59
2019-04-13T17:06:08.976Z,49.46
2019-04-13T17:08:37.553Z,49.51
2019-04-13T17:11:07.105Z,49.82
2019-04-13T17:13:37.612Z,50.61
2019-04-13T17:16:07.188Z,51.28
2019-04-13T17:18:38.067Z,54.87
2019-04-13T17:21:25.636Z,59.93
2019-04-13T17:23:58.577Z,64.78
2019-04-13T17:26:29.324Z,67.54
2019-04-13T17:29:00.208Z,67.71
2019-04-13T17:31:33.043Z,68.48
2019-04-13T17:34:03.155Z,67.75
2019-04-13T17:36:33.407Z,67.01
2019-04-13T17:39:02.265Z,66.85
2019-04-13T17:41:32.363Z,66.32
2019-04-13T17:44:20.259Z,66.35
2019-04-13T17:46:53.006Z,66.42
2019-04-13T17:49:29.981Z,65.84
2019-04-13T17:52:09.339Z,66.07
2019-04-13T17:54:49.726Z,65.94
2019-04-13T17:57:32.867Z,65.93
2019-04-13T18:00:12.281Z,65.43
2019-04-13T18:02:51.117Z,65.47
2019-04-13T18:05:37.979Z,65.70
2019-04-13T18:08:08.102Z,66.16
2019-04-13T18:10:41.333Z,66.34
2019-04-13T18:13:15.538Z,67.75
2019-04-13T18:15:48.953Z,69.20
2019-04-13T18:18:20.235Z,70.12
2019-04-13T18:20:48.930Z,70.76
2019-04-13T18:23:18.915Z,71.00
2019-04-13T18:25:52.508Z,70.80
2019-04-13T18:28:19.407Z,71.45
2019-04-13T18:30:50.021Z,71.24
2019-04-13T18:33:18.657Z,71.93
2019-04-13T18:35:48.922Z,72.00
2019-04-13T18:38:18.166Z,72.39
2019-04-13T18:40:47.859Z,72.34
2019-04-13T18:43:22.330Z,72.46
2019-04-13T18:45:47.305Z,72.99
2019-04-13T18:48:16.448Z,73.42
2019-04-13T18:50:45.474Z,73.55
2019-04-13T18:53:14.880Z,73.17
2019-04-13T18:55:43.626Z,72.95
2019-04-13T18:58:14.330Z,73.66
2019-04-13T19:00:42.522Z,74.00
2019-04-13T19:03:12.994Z,74.32
2019-04-13T19:05:41.225Z,75.19
2019-04-13T19:08:09.825Z,75.63
2019-04-13T19:10:38.334Z,76.37
2019-04-13T19:13:07.946Z,76.61
2019-04-13T19:15:36.635Z,77.04
2019-04-13T19:18:05.553Z,77.43
2019-04-13T19:20:34.032Z,78.17
2019-04-13T19:23:02.476Z,78.12
2019-04-13T19:25:31.323Z,78.03
2019-04-13T19:27:59.882Z,78.42
2019-04-13T19:30:28.402Z,78.59
2019-04-13T19:32:56.966Z,78.90
2019-04-13T19:35:25.479Z,78.52
2019-04-13T19:37:54.071Z,79.21
2019-04-13T19:40:22.553Z,79.40
2019-04-13T19:42:51.064Z,79.43
2019-04-13T19:45:19.553Z,79.33
2019-04-13T19:47:48.067Z,79.83
2019-04-13T19:50:16.603Z,80.46
2019-04-13T19:53:03.201Z,80.39
2019-04-13T19:55:31.844Z,80.23
2019-04-13T19:58:00.374Z,80.59
2019-04-13T20:00:33.464Z,80.61
2019-04-13T20:03:02.001Z,81.05
2019-04-13T20:05:30.609Z,80.66
2019-04-13T20:08:01.159Z,80.75
2019-04-13T20:10:29.610Z,81.25
2019-04-13T20:12:58.391Z,80.98
2019-04-13T20:15:27.054Z,81.22
2019-04-13T20:17:55.619Z,81.13
2019-04-13T20:20:24.172Z,81.13
2019-04-13T20:22:52.738Z,80.58
2019-04-13T20:25:22.291Z,81.37
2019-04-13T20:27:51.970Z,81.35
2019-04-13T20:30:21.627Z,81.20
2019-04-13T20:32:51.329Z,81.63
2019-04-13T20:35:19.921Z,81.53
2019-04-13T20:37:49.036Z,81.76
2019-04-13T20:40:34.324Z,81.67
2019-04-13T20:43:03.388Z,82.04
2019-04-13T20:45:31.967Z,82.12
2019-04-13T20:48:02.026Z,81.71
2019-04-13T20:50:31.702Z,81.66
2019-04-13T20:53:00.256Z,81.34
2019-04-13T20:55:28.848Z,81.02
2019-04-13T20:57:58.636Z,80.95
2019-04-13T21:00:27.159Z,80.73
2019-04-13T21:02:56.953Z,80.69
2019-04-13T21:05:25.511Z,80.88
2019-04-13T21:07:55.101Z,81.43
2019-04-13T21:10:23.698Z,81.31
2019-04-13T21:12:52.163Z,80.82
2019-04-13T21:15:22.866Z,81.73
2019-04-13T21:17:51.405Z,82.19
2019-04-13T21:20:20.764Z,82.63
2019-04-13T21:22:50.612Z,82.93
2019-04-13T21:25:19.259Z,83.13
2019-04-13T21:27:48.793Z,83.74
2019-04-13T21:30:18.524Z,83.84
2019-04-13T21:32:47.083Z,83.87
2019-04-13T21:35:16.481Z,83.64
2019-04-13T21:37:45.123Z,83.59
2019-04-13T21:40:14.469Z,83.79
2019-04-13T21:42:44.553Z,83.95
2019-04-13T21:45:13.074Z,83.71
2019-04-13T21:47:42.672Z,83.29
2019-04-13T21:50:15.883Z,82.83
2019-04-13T21:53:00.954Z,82.58
2019-04-13T21:55:46.113Z,82.48
2019-04-13T21:58:14.645Z,82.40
2019-04-13T22:00:53.576Z,82.52
2019-04-13T22:03:23.061Z,82.56
2019-04-13T22:05:52.784Z,83.16
2019-04-13T22:08:21.327Z,83.55
2019-04-13T22:10:50.813Z,83.80
2019-04-13T22:13:20.545Z,84.40
2019-04-13T22:15:49.080Z,84.34
2019-04-13T22:18:17.545Z,84.62
2019-04-13T22:20:48.560Z,85.04
2019-04-13T22:23:17.186Z,85.17
2019-04-13T22:25:51.644Z,85.55
2019-04-13T22:28:21.835Z,85.98
2019-04-13T22:30:52.394Z,86.43
2019-04-13T22:33:24.210Z,86.60
2019-04-13T22:35:57.190Z,86.28
2019-04-13T22:38:26.120Z,86.10
2019-04-13T22:40:54.633Z,85.69
2019-04-13T22:43:24.089Z,85.52
2019-04-13T22:45:53.536Z,85.28
2019-04-13T22:48:26.705Z,85.40
2019-04-13T22:51:03.408Z,85.29
2019-04-13T22:53:39.525Z,85.04
2019-04-13T22:56:12.111Z,84.89
2019-04-13T22:58:40.597Z,85.00
2019-04-13T23:01:13.709Z,85.03
2019-04-13T23:03:42.224Z,84.78
2019-04-13T23:06:11.761Z,83.88
2019-04-13T23:08:40.431Z,83.85
2019-04-13T23:11:08.936Z,83.01
2019-04-13T23:13:38.469Z,83.49
2019-04-13T23:16:07.034Z,83.36
2019-04-13T23:18:36.193Z,82.83
2019-04-13T23:21:05.160Z,82.30
2019-04-13T23:23:33.656Z,82.37
2019-04-13T23:26:02.118Z,82.22
2019-04-13T23:28:31.424Z,82.07
2019-04-13T23:30:59.953Z,82.22
2019-04-13T23:33:28.438Z,81.99
2019-04-13T23:35:58.365Z,81.81
2019-04-13T23:38:27.360Z,81.82
2019-04-13T23:40:56.925Z,82.06
2019-04-13T23:43:25.594Z,81.33
2019-04-13T23:45:54.068Z,81.10
2019-04-13T23:48:22.555Z,81.42
2019-04-13T23:50:51.036Z,81.31
2019-04-13T23:53:20.468Z,81.47
2019-04-13T23:55:51.136Z,81.37
2019-04-13T23:58:36.962Z,81.11
